createdAt,value
2023-04-30T00:01:31.310Z,11.50
2023-04-30T00:04:00.923Z,11.40
2023-04-30T00:06:28.724Z,11.50
2023-04-30T00:08:56.536Z,11.30
2023-04-30T00:11:25.628Z,11.20
2023-04-30T00:13:53.577Z,11.30
2023-04-30T00:16:21.421Z,11.30
2023-04-30T00:18:49.253Z,11.20
2023-04-30T00:21:18.400Z,11.10
2023-04-30T00:23:46.189Z,11.10
2023-04-30T00:26:14.031Z,11.10
2023-04-30T00:28:41.800Z,11.10
2023-04-30T00:31:09.567Z,11.20
2023-04-30T00:33:37.390Z,11.10
2023-04-30T00:36:05.984Z,11.10
2023-04-30T00:38:35.152Z,11.00
2023-04-30T00:41:03.214Z,11.00
2023-04-30T00:43:31.542Z,11.00
2023-04-30T00:45:59.487Z,11.00
2023-04-30T00:48:28.044Z,11.10
2023-04-30T00:50:55.846Z,11.00
2023-04-30T00:53:23.620Z,10.90
2023-04-30T00:55:53.928Z,11.00
2023-04-30T00:58:21.949Z,11.00
2023-04-30T01:00:50.725Z,11.00
2023-04-30T01:03:18.745Z,11.00
2023-04-30T01:05:46.624Z,10.90
2023-04-30T01:08:14.634Z,10.80
2023-04-30T01:10:47.224Z,10.90
2023-04-30T01:13:23.765Z,10.90
2023-04-30T01:16:00.313Z,10.90
2023-04-30T01:18:32.456Z,11.00
2023-04-30T01:21:05.626Z,11.00
2023-04-30T01:23:56.263Z,10.80
2023-04-30T01:26:41.217Z,10.80
2023-04-30T01:29:12.978Z,10.90
2023-04-30T01:31:44.435Z,10.90
2023-04-30T01:34:12.273Z,10.80
2023-04-30T01:37:02.028Z,10.90
2023-04-30T01:39:45.031Z,11.00
2023-04-30T01:42:17.445Z,11.00
2023-04-30T01:45:13.904Z,11.00
2023-04-30T01:47:49.644Z,10.90
2023-04-30T01:50:29.795Z,10.80
2023-04-30T01:53:01.175Z,10.90
2023-04-30T01:55:35.905Z,10.90
2023-04-30T01:58:07.849Z,10.90
2023-04-30T02:00:37.100Z,10.70
2023-04-30T02:03:05.138Z,10.80
2023-04-30T02:05:33.259Z,10.80
2023-04-30T02:08:01.060Z,10.80
2023-04-30T02:10:30.488Z,10.70
2023-04-30T02:12:58.671Z,10.70
2023-04-30T02:15:27.350Z,10.60
2023-04-30T02:17:56.496Z,10.60
2023-04-30T02:20:24.378Z,10.70
2023-04-30T02:22:52.391Z,10.70
2023-04-30T02:25:20.321Z,10.70
2023-04-30T02:27:50.414Z,10.70
2023-04-30T02:30:19.748Z,10.60
2023-04-30T02:32:47.885Z,10.50
2023-04-30T02:35:17.264Z,10.60
2023-04-30T02:37:45.054Z,10.70
2023-04-30T02:40:13.737Z,10.50
2023-04-30T02:42:41.609Z,10.60
2023-04-30T02:45:10.212Z,10.60
2023-04-30T02:47:38.003Z,10.50
2023-04-30T02:50:06.743Z,10.50
2023-04-30T02:52:35.843Z,10.50
2023-04-30T02:55:04.222Z,10.50
2023-04-30T02:57:32.046Z,10.50
2023-04-30T03:00:00.383Z,10.50
2023-04-30T03:02:28.325Z,10.40
2023-04-30T03:04:56.128Z,10.50
2023-04-30T03:07:24.457Z,10.60
2023-04-30T03:09:54.051Z,10.40
2023-04-30T03:12:22.074Z,10.50
2023-04-30T03:14:50.020Z,10.40
2023-04-30T03:17:17.801Z,10.40
2023-04-30T03:19:45.626Z,10.30
2023-04-30T03:22:13.396Z,10.20
2023-04-30T03:24:41.477Z,10.20
2023-04-30T03:27:10.900Z,10.20
2023-04-30T03:29:38.644Z,10.10
2023-04-30T03:32:06.530Z,10.00
2023-04-30T03:34:34.279Z,10.10
2023-04-30T03:37:02.416Z,10.00
2023-04-30T03:39:30.292Z,10.00
2023-04-30T03:41:58.120Z,9.90
2023-04-30T03:44:27.256Z,10.00
2023-04-30T03:46:55.033Z,10.00
2023-04-30T03:49:22.821Z,10.10
2023-04-30T03:51:50.625Z,10.00
2023-04-30T03:54:18.428Z,10.10
2023-04-30T03:56:46.387Z,10.00
2023-04-30T03:59:14.402Z,9.90
2023-04-30T04:01:43.574Z,9.90
2023-04-30T04:04:11.551Z,9.90
2023-04-30T04:06:39.812Z,9.90
2023-04-30T04:09:07.743Z,10.00
2023-04-30T04:11:35.629Z,9.90
2023-04-30T04:14:03.408Z,10.00
2023-04-30T04:16:31.214Z,9.90
2023-04-30T04:19:01.213Z,9.90
2023-04-30T04:21:28.971Z,9.90
2023-04-30T04:23:56.722Z,9.80
2023-04-30T04:26:25.952Z,9.70
2023-04-30T04:28:53.867Z,9.80
2023-04-30T04:31:22.728Z,9.90
2023-04-30T04:33:51.340Z,9.90
2023-04-30T04:36:20.448Z,10.00
2023-04-30T04:38:48.920Z,10.10
2023-04-30T04:41:16.812Z,10.10
2023-04-30T04:43:44.593Z,10.20
2023-04-30T04:46:14.249Z,10.20
2023-04-30T04:48:42.237Z,10.10
2023-04-30T04:51:10.891Z,10.10
2023-04-30T04:53:40.001Z,10.20
2023-04-30T04:56:08.354Z,10.20
2023-04-30T04:58:36.306Z,10.10
2023-04-30T05:01:05.002Z,10.10
2023-04-30T05:03:33.219Z,10.20
2023-04-30T05:06:01.190Z,10.10
2023-04-30T05:08:28.967Z,10.10
2023-04-30T05:10:58.255Z,10.20
2023-04-30T05:13:26.277Z,10.20
2023-04-30T05:15:55.397Z,10.20
2023-04-30T05:18:23.377Z,10.20
2023-04-30T05:20:51.243Z,10.20
2023-04-30T05:23:19.078Z,10.10
2023-04-30T05:25:46.876Z,10.10
2023-04-30T05:28:16.029Z,10.20
2023-04-30T05:30:43.804Z,10.30
2023-04-30T05:33:11.865Z,10.40
2023-04-30T05:35:39.722Z,10.40
2023-04-30T05:38:07.519Z,10.40
2023-04-30T05:40:35.337Z,10.40
2023-04-30T05:43:03.133Z,10.40
2023-04-30T05:45:32.375Z,10.40
2023-04-30T05:48:01.918Z,10.50
2023-04-30T05:50:29.778Z,10.50
2023-04-30T05:52:57.592Z,10.60
2023-04-30T05:55:25.386Z,10.50
2023-04-30T05:57:53.197Z,10.60
2023-04-30T06:00:21.061Z,10.70
2023-04-30T06:02:50.490Z,10.70
2023-04-30T06:05:18.347Z,10.80
2023-04-30T06:07:46.200Z,10.90
2023-04-30T06:10:14.150Z,10.80
2023-04-30T06:12:42.068Z,10.90
2023-04-30T06:15:10.391Z,11.10
2023-04-30T06:17:38.241Z,11.10
2023-04-30T06:20:09.008Z,11.10
2023-04-30T06:22:36.887Z,11.30
2023-04-30T06:25:05.246Z,11.20
2023-04-30T06:27:33.144Z,11.40
2023-04-30T06:30:01.146Z,11.50
2023-04-30T06:32:29.049Z,11.50
2023-04-30T06:34:56.836Z,11.80
2023-04-30T06:37:25.992Z,12.00
2023-04-30T06:39:54.158Z,11.80
2023-04-30T06:42:22.114Z,12.00
2023-04-30T06:44:49.872Z,12.00
2023-04-30T06:47:17.967Z,12.00
2023-04-30T06:49:45.730Z,11.90
2023-04-30T06:52:13.489Z,12.10
2023-04-30T06:54:43.780Z,12.20
2023-04-30T06:57:12.237Z,12.10
2023-04-30T06:59:40.295Z,12.30
2023-04-30T07:02:08.161Z,12.40
2023-04-30T07:04:35.955Z,12.50
2023-04-30T07:07:04.330Z,12.60
2023-04-30T07:09:32.181Z,12.40
2023-04-30T07:12:01.537Z,12.60
2023-04-30T07:14:29.344Z,12.80
2023-04-30T07:16:57.237Z,12.90
2023-04-30T07:19:26.860Z,12.80
2023-04-30T07:21:54.665Z,13.00
2023-04-30T07:24:22.480Z,13.10
2023-04-30T07:26:50.267Z,13.00
2023-04-30T07:29:19.360Z,13.20
2023-04-30T07:31:47.396Z,13.10
2023-04-30T07:34:15.201Z,13.20
2023-04-30T07:36:42.972Z,13.30
2023-04-30T07:39:11.661Z,13.40
2023-04-30T07:41:39.494Z,13.30
2023-04-30T07:44:07.277Z,13.10
2023-04-30T07:46:36.588Z,13.30
2023-04-30T07:49:04.962Z,13.30
2023-04-30T07:51:33.864Z,13.20
2023-04-30T07:54:01.700Z,13.20
2023-04-30T07:56:29.515Z,13.20
2023-04-30T07:58:57.309Z,13.20
2023-04-30T08:01:25.353Z,13.20
2023-04-30T08:03:54.606Z,13.00
2023-04-30T08:06:22.709Z,13.00
2023-04-30T08:08:50.663Z,13.20
2023-04-30T08:11:18.449Z,13.30
2023-04-30T08:13:46.529Z,13.30
2023-04-30T08:16:14.408Z,13.90
2023-04-30T08:18:44.761Z,14.40
2023-04-30T08:21:14.143Z,14.40
2023-04-30T08:23:41.946Z,15.00
2023-04-30T08:26:09.726Z,15.40
2023-04-30T08:28:37.567Z,15.20
2023-04-30T08:31:05.723Z,15.20
2023-04-30T08:33:33.528Z,15.20
2023-04-30T08:36:01.505Z,14.70
2023-04-30T08:38:30.887Z,14.60
2023-04-30T08:41:13.109Z,14.60
2023-04-30T08:43:41.447Z,14.40
2023-04-30T08:46:09.553Z,14.40
2023-04-30T08:48:37.423Z,14.40
2023-04-30T08:51:05.858Z,14.40
2023-04-30T08:53:36.887Z,14.40
2023-04-30T08:56:05.183Z,14.40
2023-04-30T08:58:33.434Z,14.80
2023-04-30T09:01:02.229Z,14.70
2023-04-30T09:03:31.717Z,14.70
2023-04-30T09:05:59.589Z,14.50
2023-04-30T09:11:24.025Z,14.50
2023-04-30T09:13:53.576Z,14.70
2023-04-30T09:16:21.983Z,14.90
2023-04-30T09:18:50.554Z,15.10
2023-04-30T09:21:18.935Z,15.10
2023-04-30T09:23:56.825Z,14.90
2023-04-30T09:26:32.969Z,14.80
2023-04-30T09:29:07.494Z,14.70
2023-04-30T09:31:35.881Z,14.80
2023-04-30T09:34:04.326Z,14.90
2023-04-30T09:36:32.597Z,14.90
2023-04-30T09:39:10.298Z,14.90
2023-04-30T09:41:40.893Z,14.90
2023-04-30T09:44:08.656Z,14.90
2023-04-30T09:46:38.357Z,15.20
2023-04-30T09:49:07.210Z,15.10
2023-04-30T09:51:35.605Z,15.20
2023-04-30T09:54:04.732Z,15.20
2023-04-30T09:56:36.903Z,15.10
2023-04-30T09:59:06.752Z,15.00
2023-04-30T10:01:38.495Z,15.10
2023-04-30T10:04:08.737Z,15.10
2023-04-30T10:06:37.218Z,14.90
2023-04-30T10:09:07.943Z,14.80
2023-04-30T10:11:38.660Z,14.60
2023-04-30T10:14:13.007Z,14.70
2023-04-30T10:16:48.092Z,14.70
2023-04-30T10:19:20.629Z,14.60
2023-04-30T10:21:49.084Z,14.60
2023-04-30T10:24:19.308Z,14.70
2023-04-30T10:26:47.981Z,14.80
2023-04-30T10:29:18.495Z,15.00
2023-04-30T10:31:48.259Z,15.00
2023-04-30T10:34:22.674Z,15.30
2023-04-30T10:36:57.530Z,15.50
2023-04-30T10:39:29.152Z,15.40
2023-04-30T10:42:03.429Z,15.40
2023-04-30T10:44:35.344Z,15.50
2023-04-30T10:47:04.376Z,15.60
2023-04-30T10:49:32.720Z,15.50
2023-04-30T10:52:01.946Z,15.70
2023-04-30T10:54:31.820Z,15.70
2023-04-30T10:57:12.251Z,15.60
2023-04-30T10:59:45.012Z,16.00
2023-04-30T11:02:13.880Z,16.30
2023-04-30T11:05:10.520Z,16.40
2023-04-30T11:07:39.022Z,16.20
2023-04-30T11:10:09.878Z,16.50
2023-04-30T11:12:42.563Z,16.60
2023-04-30T11:15:18.238Z,16.50
2023-04-30T11:17:47.607Z,16.70
2023-04-30T11:20:19.949Z,16.50
2023-04-30T11:22:47.841Z,16.40
2023-04-30T11:25:20.567Z,16.20
2023-04-30T11:27:48.402Z,16.30
2023-04-30T11:30:18.779Z,16.20
2023-04-30T11:32:48.366Z,16.30
2023-04-30T11:35:19.871Z,16.40
2023-04-30T11:37:49.229Z,16.40
2023-04-30T11:40:17.018Z,16.70
2023-04-30T11:42:46.593Z,16.90
2023-04-30T11:45:20.600Z,16.80
2023-04-30T11:47:50.411Z,16.50
2023-04-30T11:50:21.247Z,16.40
2023-04-30T11:52:51.077Z,16.30
2023-04-30T11:55:21.607Z,16.30
2023-04-30T11:57:51.471Z,16.40
2023-04-30T12:00:23.251Z,16.60
2023-04-30T12:02:51.573Z,16.70
2023-04-30T12:05:20.832Z,16.70
2023-04-30T12:07:49.977Z,16.80
2023-04-30T12:10:19.485Z,16.70
2023-04-30T12:12:50.523Z,16.60
2023-04-30T12:15:26.364Z,16.50
2023-04-30T12:17:55.959Z,16.30
2023-04-30T12:20:25.898Z,16.30
2023-04-30T12:22:53.827Z,16.40
2023-04-30T12:25:23.264Z,16.30
2023-04-30T12:27:53.277Z,16.50
2023-04-30T12:30:24.726Z,16.50
2023-04-30T12:32:54.561Z,16.50
2023-04-30T12:35:23.700Z,16.30
2023-04-30T12:37:53.636Z,16.50
2023-04-30T12:40:23.121Z,16.50
2023-04-30T12:42:51.518Z,16.50
2023-04-30T12:45:46.633Z,16.50
2023-04-30T12:48:16.000Z,16.50
2023-04-30T12:50:48.150Z,16.60
2023-04-30T12:53:16.206Z,16.80
2023-04-30T12:55:43.966Z,17.10
2023-04-30T12:58:14.402Z,17.00
2023-04-30T13:00:51.443Z,17.50
2023-04-30T13:03:20.946Z,17.60
2023-04-30T13:05:50.235Z,17.60
2023-04-30T13:08:18.595Z,17.50
2023-04-30T13:10:47.152Z,17.50
2023-04-30T13:13:16.374Z,17.40
2023-04-30T13:15:44.627Z,17.20
2023-04-30T13:18:15.767Z,17.10
2023-04-30T13:20:44.575Z,17.10
2023-04-30T13:23:12.841Z,17.20
2023-04-30T13:25:41.668Z,17.40
2023-04-30T13:28:09.483Z,17.30
2023-04-30T13:30:37.445Z,17.30
2023-04-30T13:33:05.444Z,17.10
2023-04-30T13:35:34.630Z,17.30
2023-04-30T13:38:02.489Z,17.40
2023-04-30T13:40:30.275Z,17.60
2023-04-30T13:42:58.072Z,17.40
2023-04-30T13:45:26.106Z,17.50
2023-04-30T13:47:54.550Z,17.70
2023-04-30T13:50:22.344Z,17.60
2023-04-30T13:52:51.464Z,17.30
2023-04-30T13:55:19.326Z,17.40
2023-04-30T13:57:47.103Z,17.50
2023-04-30T14:00:16.518Z,17.50
2023-04-30T14:02:44.357Z,17.30
2023-04-30T14:05:12.174Z,17.30
2023-04-30T14:07:39.898Z,17.40
2023-04-30T14:10:10.169Z,17.50
2023-04-30T14:12:38.372Z,17.40
2023-04-30T14:15:06.979Z,17.20
2023-04-30T14:17:35.668Z,17.00
2023-04-30T14:20:03.782Z,16.90
2023-04-30T14:22:34.404Z,17.00
2023-04-30T14:25:02.209Z,17.00
2023-04-30T14:27:31.622Z,17.30
2023-04-30T14:29:59.546Z,17.20
2023-04-30T14:32:27.991Z,17.20
2023-04-30T14:34:55.851Z,17.40
2023-04-30T14:37:23.727Z,17.50
2023-04-30T14:39:51.538Z,17.60
2023-04-30T14:42:19.329Z,17.20
2023-04-30T14:44:48.414Z,17.10
2023-04-30T14:47:16.300Z,17.10
2023-04-30T14:49:44.052Z,16.70
2023-04-30T14:52:11.860Z,16.60
2023-04-30T14:54:39.748Z,16.60
2023-04-30T14:57:08.512Z,16.70
2023-04-30T14:59:36.899Z,16.60
2023-04-30T15:02:06.279Z,16.50
2023-04-30T15:04:34.118Z,16.60
2023-04-30T15:07:02.516Z,16.80
2023-04-30T15:09:30.532Z,16.80
2023-04-30T15:11:58.291Z,16.90
2023-04-30T15:14:26.061Z,16.70
2023-04-30T15:16:53.956Z,16.70
2023-04-30T15:19:23.174Z,16.90
2023-04-30T15:21:51.151Z,17.00
2023-04-30T15:24:19.232Z,17.10
2023-04-30T15:26:47.016Z,17.20
2023-04-30T15:29:14.913Z,16.90
2023-04-30T15:31:42.787Z,16.60
2023-04-30T15:34:10.577Z,16.70
2023-04-30T15:36:40.104Z,16.90
2023-04-30T15:39:08.306Z,16.90
2023-04-30T15:41:36.043Z,16.90
2023-04-30T15:44:03.818Z,16.90
2023-04-30T15:46:32.513Z,16.80
2023-04-30T15:49:00.948Z,16.90
2023-04-30T15:51:29.454Z,16.80
2023-04-30T15:53:58.697Z,16.80
2023-04-30T15:56:26.683Z,16.80
2023-04-30T15:58:54.707Z,16.70
2023-04-30T16:01:23.627Z,16.60
2023-04-30T16:03:52.067Z,16.50
2023-04-30T16:06:20.707Z,16.60
2023-04-30T16:08:49.873Z,16.40
2023-04-30T16:11:19.653Z,16.30
2023-04-30T16:13:48.129Z,16.40
2023-04-30T16:16:16.582Z,16.30
2023-04-30T16:18:45.019Z,16.20
2023-04-30T16:21:12.990Z,16.20
2023-04-30T16:23:41.266Z,16.10
2023-04-30T16:26:09.781Z,16.20
2023-04-30T16:28:38.953Z,16.20
2023-04-30T16:31:06.963Z,16.20
2023-04-30T16:33:34.865Z,16.10
2023-04-30T16:36:02.634Z,16.00
2023-04-30T16:38:30.508Z,15.90
2023-04-30T16:40:58.345Z,15.70
2023-04-30T16:43:26.289Z,15.70
2023-04-30T16:45:55.474Z,15.70
2023-04-30T16:48:23.360Z,15.90
2023-04-30T16:50:51.467Z,15.70
2023-04-30T16:53:19.414Z,15.70
2023-04-30T16:55:47.302Z,15.60
2023-04-30T16:58:15.649Z,15.60
2023-04-30T17:00:43.730Z,15.50
2023-04-30T17:03:13.072Z,15.40
2023-04-30T17:05:41.093Z,15.30
2023-04-30T17:08:09.016Z,15.30
2023-04-30T17:10:36.824Z,15.20
2023-04-30T17:13:05.511Z,15.20
2023-04-30T17:15:33.388Z,15.30
2023-04-30T17:18:01.316Z,15.10
2023-04-30T17:20:30.519Z,15.20
2023-04-30T17:22:59.100Z,15.20
2023-04-30T17:25:27.556Z,15.10
2023-04-30T17:27:55.360Z,15.10
2023-04-30T17:30:23.280Z,15.00
2023-04-30T17:32:51.157Z,14.90
2023-04-30T17:35:19.224Z,14.80
2023-04-30T17:37:48.380Z,14.90
2023-04-30T17:40:16.340Z,14.90
2023-04-30T17:42:44.172Z,14.90
2023-04-30T17:45:12.632Z,14.80
2023-04-30T17:47:40.648Z,14.80
2023-04-30T17:50:10.144Z,14.70
2023-04-30T17:52:38.746Z,14.60
2023-04-30T17:55:09.536Z,14.60
2023-04-30T17:57:37.795Z,14.40
2023-04-30T18:00:07.088Z,14.40
2023-04-30T18:02:35.069Z,14.30
2023-04-30T18:05:03.022Z,14.30
2023-04-30T18:07:30.853Z,14.20
2023-04-30T18:09:59.055Z,14.20
2023-04-30T18:12:28.654Z,14.10
2023-04-30T18:14:56.441Z,14.10
2023-04-30T18:17:24.327Z,14.00
2023-04-30T18:19:52.208Z,13.90
2023-04-30T18:22:20.085Z,13.80
2023-04-30T18:24:48.103Z,13.70
2023-04-30T18:27:15.905Z,13.60
2023-04-30T18:29:45.168Z,13.60
2023-04-30T18:32:13.334Z,13.60
2023-04-30T18:34:41.303Z,13.50
2023-04-30T18:37:09.425Z,13.50
2023-04-30T18:39:37.214Z,13.50
2023-04-30T18:42:05.111Z,13.50
2023-04-30T18:44:33.302Z,13.50
2023-04-30T18:47:03.004Z,13.40
2023-04-30T18:49:30.801Z,13.40
2023-04-30T18:52:00.368Z,13.40
2023-04-30T18:54:28.226Z,13.30
2023-04-30T18:56:56.211Z,13.30
2023-04-30T18:59:24.006Z,13.20
2023-04-30T19:01:51.794Z,13.20
2023-04-30T19:04:20.967Z,13.20
2023-04-30T19:06:49.801Z,13.20
2023-04-30T19:09:17.797Z,13.20
2023-04-30T19:11:45.651Z,13.00
2023-04-30T19:14:13.420Z,13.00
2023-04-30T19:16:41.267Z,12.90
2023-04-30T19:19:09.084Z,13.00
2023-04-30T19:21:38.333Z,13.00
2023-04-30T19:24:06.396Z,13.00
2023-04-30T19:26:35.838Z,12.90
2023-04-30T19:29:03.971Z,12.90
2023-04-30T19:31:31.875Z,12.80
2023-04-30T19:34:00.950Z,12.70
2023-04-30T19:36:29.253Z,12.70
2023-04-30T19:38:58.587Z,12.60
2023-04-30T19:41:27.114Z,12.70
2023-04-30T19:43:55.774Z,12.60
2023-04-30T19:46:23.656Z,12.60
2023-04-30T19:48:51.432Z,12.60
2023-04-30T19:51:19.305Z,12.50
2023-04-30T19:53:47.197Z,12.50
2023-04-30T19:56:16.352Z,12.50
2023-04-30T19:58:44.881Z,12.50
2023-04-30T20:01:12.871Z,12.50
2023-04-30T20:03:42.721Z,12.40
2023-04-30T20:06:10.968Z,12.40
2023-04-30T20:08:38.767Z,12.30
2023-04-30T20:11:06.896Z,12.30
2023-04-30T20:13:36.379Z,12.20
2023-04-30T20:16:04.369Z,12.20
2023-04-30T20:18:32.234Z,12.20
2023-04-30T20:21:00.059Z,12.20
2023-04-30T20:23:27.942Z,12.10
2023-04-30T20:25:55.756Z,12.00
2023-04-30T20:28:23.580Z,12.00
2023-04-30T20:30:52.728Z,12.00
2023-04-30T20:33:20.581Z,12.00
2023-04-30T20:35:48.496Z,12.00
2023-04-30T20:38:19.619Z,12.00
2023-04-30T20:40:47.718Z,11.90
2023-04-30T20:43:15.800Z,11.90
2023-04-30T20:45:45.456Z,11.70
2023-04-30T20:48:15.195Z,11.70
2023-04-30T20:50:43.138Z,11.70
2023-04-30T20:53:11.585Z,11.70
2023-04-30T20:55:39.462Z,11.70
2023-04-30T20:58:08.846Z,11.70
2023-04-30T21:00:36.667Z,11.70
2023-04-30T21:03:05.366Z,11.70
2023-04-30T21:05:34.582Z,11.70
2023-04-30T21:08:02.453Z,11.70
2023-04-30T21:10:36.097Z,11.60
2023-04-30T21:13:05.297Z,11.60
2023-04-30T21:15:33.978Z,11.60
2023-04-30T21:18:01.926Z,11.50
2023-04-30T21:20:31.163Z,11.50
2023-04-30T21:23:00.454Z,11.40
2023-04-30T21:25:28.424Z,11.40
2023-04-30T21:27:56.257Z,11.40
2023-04-30T21:30:26.270Z,11.40
2023-04-30T21:32:58.130Z,11.40
2023-04-30T21:35:27.496Z,11.30
2023-04-30T21:37:55.348Z,11.30
2023-04-30T21:40:24.609Z,11.30
2023-04-30T21:42:52.793Z,11.30
2023-04-30T21:45:20.829Z,11.30
2023-04-30T21:47:48.977Z,11.20
2023-04-30T21:50:16.900Z,11.20
2023-04-30T21:52:44.698Z,11.30
2023-04-30T21:55:12.578Z,11.20
2023-04-30T21:57:41.676Z,11.20
2023-04-30T22:00:14.190Z,11.20
2023-04-30T22:02:42.340Z,11.20
2023-04-30T22:05:11.383Z,11.20
2023-04-30T22:07:39.213Z,11.10
2023-04-30T22:10:08.106Z,11.10
2023-04-30T22:12:36.033Z,11.10
2023-04-30T22:15:06.397Z,11.20
2023-04-30T22:17:34.718Z,11.10
2023-04-30T22:20:02.613Z,11.10
2023-04-30T22:22:30.451Z,11.20
2023-04-30T22:24:58.226Z,11.10
2023-04-30T22:27:26.034Z,11.10
2023-04-30T22:29:54.096Z,11.20
2023-04-30T22:32:23.558Z,11.20
2023-04-30T22:34:51.363Z,11.10
2023-04-30T22:37:19.126Z,11.10
2023-04-30T22:39:48.272Z,11.10
2023-04-30T22:42:16.809Z,11.00
2023-04-30T22:44:45.835Z,11.00
2023-04-30T22:47:13.901Z,11.00
2023-04-30T22:49:43.257Z,11.00
2023-04-30T22:52:11.649Z,11.00
2023-04-30T22:54:40.306Z,11.10
2023-04-30T22:57:08.114Z,11.00
2023-04-30T22:59:35.945Z,11.00
2023-04-30T23:02:03.787Z,11.00
2023-04-30T23:04:32.271Z,10.90
2023-04-30T23:07:01.783Z,11.00
2023-04-30T23:09:29.619Z,11.00
2023-04-30T23:11:57.376Z,11.00
2023-04-30T23:14:25.770Z,10.90
2023-04-30T23:16:53.644Z,10.90
2023-04-30T23:19:21.448Z,10.90
2023-04-30T23:21:49.278Z,10.90
2023-04-30T23:24:18.431Z,10.90
2023-04-30T23:26:47.079Z,10.80
2023-04-30T23:29:15.531Z,10.90
2023-04-30T23:31:43.317Z,10.90
2023-04-30T23:34:12.385Z,10.80
2023-04-30T23:36:40.183Z,10.80
2023-04-30T23:39:08.094Z,10.70
2023-04-30T23:41:37.208Z,10.70
2023-04-30T23:44:05.272Z,10.80
2023-04-30T23:46:33.210Z,10.70
2023-04-30T23:49:01.026Z,10.60
2023-04-30T23:51:28.792Z,10.60
2023-04-30T23:53:56.531Z,10.60
2023-04-30T23:56:24.297Z,10.60
2023-04-30T23:58:53.497Z,10.50
